sensor_id;sensor_type;location;lat;lon;timestamp;temperature;humidity
2993;DHT22;1506;48.932;9.478;2022-11-20T00:01:28;5.10;99.90
2993;DHT22;1506;48.932;9.478;2022-11-20T00:03:57;5.30;99.90
2993;DHT22;1506;48.932;9.478;2022-11-20T00:06:25;5.50;99.90
2993;DHT22;1506;48.932;9.478;2022-11-20T00:08:57;5.60;99.90
2993;DHT22;1506;48.932;9.478;2022-11-20T00:11:27;5.60;99.90
2993;DHT22;1506;48.932;9.478;2022-11-20T00:13:58;5.60;99.90
2993;DHT22;1506;48.932;9.478;2022-11-20T00:16:29;5.50;99.90
2993;DHT22;1506;48.932;9.478;2022-11-20T00:18:57;5.60;99.90
2993;DHT22;1506;48.932;9.478;2022-11-20T00:21:26;5.70;99.90
2993;DHT22;1506;48.932;9.478;2022-11-20T00:23:55;5.70;99.90
2993;DHT22;1506;48.932;9.478;2022-11-20T00:26:25;5.60;99.90
2993;DHT22;1506;48.932;9.478;2022-11-20T00:28:55;5.70;99.90
2993;DHT22;1506;48.932;9.478;2022-11-20T00:31:23;5.70;99.90
2993;DHT22;1506;48.932;9.478;2022-11-20T00:33:51;5.80;99.90
2993;DHT22;1506;48.932;9.478;2022-11-20T00:36:20;5.80;99.90
2993;DHT22;1506;48.932;9.478;2022-11-20T00:38:55;5.90;99.90
2993;DHT22;1506;48.932;9.478;2022-11-20T00:41:24;5.90;99.90
2993;DHT22;1506;48.932;9.478;2022-11-20T00:43:55;5.90;99.90
2993;DHT22;1506;48.932;9.478;2022-11-20T00:46:24;5.90;99.90
2993;DHT22;1506;48.932;9.478;2022-11-20T00:48:52;6.00;99.90
2993;DHT22;1506;48.932;9.478;2022-11-20T00:51:25;6.00;99.90
2993;DHT22;1506;48.932;9.478;2022-11-20T00:53:55;6.00;99.90
2993;DHT22;1506;48.932;9.478;2022-11-20T00:56:23;6.00;99.90
2993;DHT22;1506;48.932;9.478;2022-11-20T00:58:51;6.00;99.90
2993;DHT22;1506;48.932;9.478;2022-11-20T01:01:23;6.00;99.90
2993;DHT22;1506;48.932;9.478;2022-11-20T01:03:53;6.10;99.90
2993;DHT22;1506;48.932;9.478;2022-11-20T01:08:53;6.00;99.90
2993;DHT22;1506;48.932;9.478;2022-11-20T01:11:27;5.80;99.90
2993;DHT22;1506;48.932;9.478;2022-11-20T01:13:57;5.90;99.90
2993;DHT22;1506;48.932;9.478;2022-11-20T01:16:33;5.90;99.90
2993;DHT22;1506;48.932;9.478;2022-11-20T01:19:04;5.80;99.90
2993;DHT22;1506;48.932;9.478;2022-11-20T01:21:35;5.80;99.90
2993;DHT22;1506;48.932;9.478;2022-11-20T01:24:10;5.50;99.90
2993;DHT22;1506;48.932;9.478;2022-11-20T01:26:40;5.30;99.90
2993;DHT22;1506;48.932;9.478;2022-11-20T01:29:14;5.20;99.90
2993;DHT22;1506;48.932;9.478;2022-11-20T01:31:44;5.20;99.90
2993;DHT22;1506;48.932;9.478;2022-11-20T01:34:16;5.30;99.90
2993;DHT22;1506;48.932;9.478;2022-11-20T01:36:44;5.40;99.90
2993;DHT22;1506;48.932;9.478;2022-11-20T01:39:17;5.30;99.90
2993;DHT22;1506;48.932;9.478;2022-11-20T01:41:47;5.40;99.90
2993;DHT22;1506;48.932;9.478;2022-11-20T01:47:25;5.30;99.90
2993;DHT22;1506;48.932;9.478;2022-11-20T01:50:26;5.20;99.90
2993;DHT22;1506;48.932;9.478;2022-11-20T01:53:05;5.20;99.90
2993;DHT22;1506;48.932;9.478;2022-11-20T01:55:50;5.10;99.90
2993;DHT22;1506;48.932;9.478;2022-11-20T01:58:21;5.20;99.90
2993;DHT22;1506;48.932;9.478;2022-11-20T02:00:51;5.20;99.90
2993;DHT22;1506;48.932;9.478;2022-11-20T02:03:19;5.30;99.90
2993;DHT22;1506;48.932;9.478;2022-11-20T02:06:05;5.50;99.90
2993;DHT22;1506;48.932;9.478;2022-11-20T02:08:38;5.60;99.90
2993;DHT22;1506;48.932;9.478;2022-11-20T02:11:05;5.70;99.90
2993;DHT22;1506;48.932;9.478;2022-11-20T02:13:33;5.70;99.90
2993;DHT22;1506;48.932;9.478;2022-11-20T02:16:22;5.70;99.90
2993;DHT22;1506;48.932;9.478;2022-11-20T02:18:51;5.90;99.90
2993;DHT22;1506;48.932;9.478;2022-11-20T02:26:24;6.00;99.90
2993;DHT22;1506;48.932;9.478;2022-11-20T02:28:51;6.10;99.90
2993;DHT22;1506;48.932;9.478;2022-11-20T02:31:18;6.20;99.90
2993;DHT22;1506;48.932;9.478;2022-11-20T02:33:45;6.20;99.90
2993;DHT22;1506;48.932;9.478;2022-11-20T02:36:15;6.20;99.90
2993;DHT22;1506;48.932;9.478;2022-11-20T02:38:43;6.30;99.90
2993;DHT22;1506;48.932;9.478;2022-11-20T02:41:10;6.30;99.90
2993;DHT22;1506;48.932;9.478;2022-11-20T02:43:37;6.30;99.90
2993;DHT22;1506;48.932;9.478;2022-11-20T02:46:07;6.30;99.90
2993;DHT22;1506;48.932;9.478;2022-11-20T02:48:34;6.30;99.90
2993;DHT22;1506;48.932;9.478;2022-11-20T02:51:01;6.30;99.90
2993;DHT22;1506;48.932;9.478;2022-11-20T02:53:29;6.20;99.90
2993;DHT22;1506;48.932;9.478;2022-11-20T02:55:55;6.20;99.90
2993;DHT22;1506;48.932;9.478;2022-11-20T02:58:22;6.20;99.90
2993;DHT22;1506;48.932;9.478;2022-11-20T03:00:49;6.20;99.90
2993;DHT22;1506;48.932;9.478;2022-11-20T03:03:17;6.20;99.90
2993;DHT22;1506;48.932;9.478;2022-11-20T03:05:44;6.10;99.90
2993;DHT22;1506;48.932;9.478;2022-11-20T03:08:11;6.10;99.90
2993;DHT22;1506;48.932;9.478;2022-11-20T03:10:37;6.20;99.90
2993;DHT22;1506;48.932;9.478;2022-11-20T03:13:04;6.30;99.90
2993;DHT22;1506;48.932;9.478;2022-11-20T03:16:08;6.20;99.90
2993;DHT22;1506;48.932;9.478;2022-11-20T03:19:01;6.30;99.90
2993;DHT22;1506;48.932;9.478;2022-11-20T03:21:28;6.30;99.90
2993;DHT22;1506;48.932;9.478;2022-11-20T03:23:55;6.30;99.90
2993;DHT22;1506;48.932;9.478;2022-11-20T03:26:25;6.40;99.90
2993;DHT22;1506;48.932;9.478;2022-11-20T03:28:58;6.40;99.90
2993;DHT22;1506;48.932;9.478;2022-11-20T03:31:29;6.40;99.90
2993;DHT22;1506;48.932;9.478;2022-11-20T03:34:01;6.40;99.90
2993;DHT22;1506;48.932;9.478;2022-11-20T03:36:29;6.40;99.90
2993;DHT22;1506;48.932;9.478;2022-11-20T03:38:57;6.40;99.90
2993;DHT22;1506;48.932;9.478;2022-11-20T03:41:29;6.40;99.90
2993;DHT22;1506;48.932;9.478;2022-11-20T03:44:00;6.40;99.90
2993;DHT22;1506;48.932;9.478;2022-11-20T03:46:28;6.30;99.90
2993;DHT22;1506;48.932;9.478;2022-11-20T03:48:56;6.20;99.90
2993;DHT22;1506;48.932;9.478;2022-11-20T03:53:53;5.80;99.90
2993;DHT22;1506;48.932;9.478;2022-11-20T03:56:39;5.80;99.90
2993;DHT22;1506;48.932;9.478;2022-11-20T03:59:09;5.70;99.90
2993;DHT22;1506;48.932;9.478;2022-11-20T04:01:36;5.70;99.90
2993;DHT22;1506;48.932;9.478;2022-11-20T04:04:04;5.70;99.90
2993;DHT22;1506;48.932;9.478;2022-11-20T04:06:37;5.80;99.90
2993;DHT22;1506;48.932;9.478;2022-11-20T04:09:05;5.90;99.90
2993;DHT22;1506;48.932;9.478;2022-11-20T04:11:35;6.00;99.90
2993;DHT22;1506;48.932;9.478;2022-11-20T04:14:05;6.10;99.90
2993;DHT22;1506;48.932;9.478;2022-11-20T04:16:35;6.10;99.90
2993;DHT22;1506;48.932;9.478;2022-11-20T04:19:05;6.10;99.90
2993;DHT22;1506;48.932;9.478;2022-11-20T04:21:35;6.00;99.90
2993;DHT22;1506;48.932;9.478;2022-11-20T04:24:02;6.00;99.90
2993;DHT22;1506;48.932;9.478;2022-11-20T04:26:31;5.90;99.90
2993;DHT22;1506;48.932;9.478;2022-11-20T04:28:58;6.00;99.90
2993;DHT22;1506;48.932;9.478;2022-11-20T04:31:28;6.00;99.90
2993;DHT22;1506;48.932;9.478;2022-11-20T04:34:00;6.00;99.90
2993;DHT22;1506;48.932;9.478;2022-11-20T04:36:30;6.00;99.90
2993;DHT22;1506;48.932;9.478;2022-11-20T04:39:00;6.10;99.90
2993;DHT22;1506;48.932;9.478;2022-11-20T04:41:33;6.10;99.90
2993;DHT22;1506;48.932;9.478;2022-11-20T04:44:02;6.10;99.90
2993;DHT22;1506;48.932;9.478;2022-11-20T04:46:35;6.10;99.90
2993;DHT22;1506;48.932;9.478;2022-11-20T04:49:05;6.00;99.90
2993;DHT22;1506;48.932;9.478;2022-11-20T04:51:33;6.10;99.90
2993;DHT22;1506;48.932;9.478;2022-11-20T04:54:00;6.00;99.90
2993;DHT22;1506;48.932;9.478;2022-11-20T04:56:27;6.00;99.90
2993;DHT22;1506;48.932;9.478;2022-11-20T04:58:54;6.10;99.90
2993;DHT22;1506;48.932;9.478;2022-11-20T05:01:23;6.00;99.90
2993;DHT22;1506;48.932;9.478;2022-11-20T05:03:51;6.10;99.90
2993;DHT22;1506;48.932;9.478;2022-11-20T05:06:19;6.10;99.90
2993;DHT22;1506;48.932;9.478;2022-11-20T05:08:48;6.00;99.90
2993;DHT22;1506;48.932;9.478;2022-11-20T05:11:17;6.00;99.90
2993;DHT22;1506;48.932;9.478;2022-11-20T05:13:46;6.00;99.90
2993;DHT22;1506;48.932;9.478;2022-11-20T05:16:16;5.90;99.90
2993;DHT22;1506;48.932;9.478;2022-11-20T05:18:48;5.90;99.90
2993;DHT22;1506;48.932;9.478;2022-11-20T05:21:16;6.00;99.90
2993;DHT22;1506;48.932;9.478;2022-11-20T05:23:44;6.00;99.90
2993;DHT22;1506;48.932;9.478;2022-11-20T05:26:18;5.90;99.90
2993;DHT22;1506;48.932;9.478;2022-11-20T05:28:46;5.80;99.90
2993;DHT22;1506;48.932;9.478;2022-11-20T05:31:18;5.70;99.90
2993;DHT22;1506;48.932;9.478;2022-11-20T05:33:54;5.70;99.90
2993;DHT22;1506;48.932;9.478;2022-11-20T05:36:23;5.70;99.90
2993;DHT22;1506;48.932;9.478;2022-11-20T05:38:50;5.60;99.90
2993;DHT22;1506;48.932;9.478;2022-11-20T05:41:24;5.70;99.90
2993;DHT22;1506;48.932;9.478;2022-11-20T05:43:51;5.70;99.90
2993;DHT22;1506;48.932;9.478;2022-11-20T05:46:20;5.80;99.90
2993;DHT22;1506;48.932;9.478;2022-11-20T05:48:54;5.80;99.90
2993;DHT22;1506;48.932;9.478;2022-11-20T05:51:21;5.80;99.90
2993;DHT22;1506;48.932;9.478;2022-11-20T05:53:48;5.80;99.90
2993;DHT22;1506;48.932;9.478;2022-11-20T05:56:17;5.90;99.90
2993;DHT22;1506;48.932;9.478;2022-11-20T05:58:46;5.90;99.90
2993;DHT22;1506;48.932;9.478;2022-11-20T06:01:21;5.80;99.90
2993;DHT22;1506;48.932;9.478;2022-11-20T06:03:50;5.80;99.90
2993;DHT22;1506;48.932;9.478;2022-11-20T06:06:18;5.70;99.90
2993;DHT22;1506;48.932;9.478;2022-11-20T06:08:46;5.80;99.90
2993;DHT22;1506;48.932;9.478;2022-11-20T06:11:15;5.80;99.90
2993;DHT22;1506;48.932;9.478;2022-11-20T06:13:42;5.80;99.90
2993;DHT22;1506;48.932;9.478;2022-11-20T06:16:11;5.80;99.90
2993;DHT22;1506;48.932;9.478;2022-11-20T06:18:40;5.80;99.90
2993;DHT22;1506;48.932;9.478;2022-11-20T06:21:12;5.80;99.90
2993;DHT22;1506;48.932;9.478;2022-11-20T06:23:44;5.80;99.90
2993;DHT22;1506;48.932;9.478;2022-11-20T06:26:14;5.90;99.90
2993;DHT22;1506;48.932;9.478;2022-11-20T06:28:46;5.80;99.90
2993;DHT22;1506;48.932;9.478;2022-11-20T06:31:15;5.80;99.90
2993;DHT22;1506;48.932;9.478;2022-11-20T06:33:45;5.90;99.90
2993;DHT22;1506;48.932;9.478;2022-11-20T06:36:13;5.90;99.90
2993;DHT22;1506;48.932;9.478;2022-11-20T06:38:41;6.00;99.90
2993;DHT22;1506;48.932;9.478;2022-11-20T06:41:18;6.10;99.90
2993;DHT22;1506;48.932;9.478;2022-11-20T06:43:46;6.10;99.90
2993;DHT22;1506;48.932;9.478;2022-11-20T06:46:14;6.00;99.90
2993;DHT22;1506;48.932;9.478;2022-11-20T06:48:44;6.10;99.90
2993;DHT22;1506;48.932;9.478;2022-11-20T06:51:12;6.20;99.90
2993;DHT22;1506;48.932;9.478;2022-11-20T06:53:39;6.20;99.90
2993;DHT22;1506;48.932;9.478;2022-11-20T06:56:07;6.20;99.90
2993;DHT22;1506;48.932;9.478;2022-11-20T06:58:35;6.10;99.90
2993;DHT22;1506;48.932;9.478;2022-11-20T07:01:08;6.00;99.90
2993;DHT22;1506;48.932;9.478;2022-11-20T07:03:37;6.10;99.90
2993;DHT22;1506;48.932;9.478;2022-11-20T07:06:05;6.10;96.90
2993;DHT22;1506;48.932;9.478;2022-11-20T07:08:33;6.10;99.90
2993;DHT22;1506;48.932;9.478;2022-11-20T07:11:05;6.10;99.90
2993;DHT22;1506;48.932;9.478;2022-11-20T07:13:33;6.10;95.20
2993;DHT22;1506;48.932;9.478;2022-11-20T07:16:02;6.20;99.90
2993;DHT22;1506;48.932;9.478;2022-11-20T07:18:32;6.10;97.90
2993;DHT22;1506;48.932;9.478;2022-11-20T07:21:07;6.10;99.90
2993;DHT22;1506;48.932;9.478;2022-11-20T07:23:36;6.10;99.90
2993;DHT22;1506;48.932;9.478;2022-11-20T07:26:08;6.20;99.90
2993;DHT22;1506;48.932;9.478;2022-11-20T07:28:36;6.20;99.90
2993;DHT22;1506;48.932;9.478;2022-11-20T07:31:04;6.30;99.90
2993;DHT22;1506;48.932;9.478;2022-11-20T07:33:33;6.40;92.80
2993;DHT22;1506;48.932;9.478;2022-11-20T07:36:00;6.40;98.60
2993;DHT22;1506;48.932;9.478;2022-11-20T07:38:28;6.30;54.40
2993;DHT22;1506;48.932;9.478;2022-11-20T07:40:56;6.40;93.70
2993;DHT22;1506;48.932;9.478;2022-11-20T07:43:24;6.50;93.40
2993;DHT22;1506;48.932;9.478;2022-11-20T07:45:51;6.50;96.40
2993;DHT22;1506;48.932;9.478;2022-11-20T07:48:18;6.60;97.70
2993;DHT22;1506;48.932;9.478;2022-11-20T07:50:45;6.40;99.80
2993;DHT22;1506;48.932;9.478;2022-11-20T07:53:12;6.40;99.90
2993;DHT22;1506;48.932;9.478;2022-11-20T07:55:40;6.30;99.90
2993;DHT22;1506;48.932;9.478;2022-11-20T07:58:07;6.30;99.90
2993;DHT22;1506;48.932;9.478;2022-11-20T08:00:34;6.30;99.90
2993;DHT22;1506;48.932;9.478;2022-11-20T08:03:03;6.20;99.90
2993;DHT22;1506;48.932;9.478;2022-11-20T08:05:31;6.10;99.90
2993;DHT22;1506;48.932;9.478;2022-11-20T08:07:58;6.20;99.90
2993;DHT22;1506;48.932;9.478;2022-11-20T08:10:25;6.20;99.90
2993;DHT22;1506;48.932;9.478;2022-11-20T08:12:52;6.20;99.90
2993;DHT22;1506;48.932;9.478;2022-11-20T08:15:39;6.20;99.90
2993;DHT22;1506;48.932;9.478;2022-11-20T08:18:12;6.10;99.90
2993;DHT22;1506;48.932;9.478;2022-11-20T08:20:57;5.90;99.90
2993;DHT22;1506;48.932;9.478;2022-11-20T08:23:27;5.90;99.90
2993;DHT22;1506;48.932;9.478;2022-11-20T08:25:54;5.80;99.90
2993;DHT22;1506;48.932;9.478;2022-11-20T08:28:21;5.80;99.90
2993;DHT22;1506;48.932;9.478;2022-11-20T08:30:49;5.80;99.90
2993;DHT22;1506;48.932;9.478;2022-11-20T08:33:17;5.90;99.90
2993;DHT22;1506;48.932;9.478;2022-11-20T08:35:45;5.90;99.90
2993;DHT22;1506;48.932;9.478;2022-11-20T08:38:12;5.90;99.90
2993;DHT22;1506;48.932;9.478;2022-11-20T08:40:39;5.90;99.90
2993;DHT22;1506;48.932;9.478;2022-11-20T08:43:06;5.90;99.90
2993;DHT22;1506;48.932;9.478;2022-11-20T08:45:33;6.00;99.90
2993;DHT22;1506;48.932;9.478;2022-11-20T08:48:04;6.00;99.90
2993;DHT22;1506;48.932;9.478;2022-11-20T08:50:32;6.00;99.90
2993;DHT22;1506;48.932;9.478;2022-11-20T08:53:05;6.00;99.90
2993;DHT22;1506;48.932;9.478;2022-11-20T08:55:32;6.10;99.90
2993;DHT22;1506;48.932;9.478;2022-11-20T08:58:06;6.20;99.90
2993;DHT22;1506;48.932;9.478;2022-11-20T09:00:33;6.20;99.90
2993;DHT22;1506;48.932;9.478;2022-11-20T09:03:01;6.20;99.90
2993;DHT22;1506;48.932;9.478;2022-11-20T09:05:29;6.10;99.90
2993;DHT22;1506;48.932;9.478;2022-11-20T09:07:57;6.10;99.90
2993;DHT22;1506;48.932;9.478;2022-11-20T09:10:24;6.10;99.90
2993;DHT22;1506;48.932;9.478;2022-11-20T09:12:52;6.20;99.90
2993;DHT22;1506;48.932;9.478;2022-11-20T09:15:22;6.10;99.90
2993;DHT22;1506;48.932;9.478;2022-11-20T09:18:02;6.20;99.90
2993;DHT22;1506;48.932;9.478;2022-11-20T09:20:31;6.20;99.90
2993;DHT22;1506;48.932;9.478;2022-11-20T09:22:58;6.40;99.90
2993;DHT22;1506;48.932;9.478;2022-11-20T09:25:25;6.40;99.90
2993;DHT22;1506;48.932;9.478;2022-11-20T09:27:58;6.60;99.90
2993;DHT22;1506;48.932;9.478;2022-11-20T09:30:26;6.60;99.90
2993;DHT22;1506;48.932;9.478;2022-11-20T09:32:54;6.70;99.90
2993;DHT22;1506;48.932;9.478;2022-11-20T09:35:21;6.70;99.90
2993;DHT22;1506;48.932;9.478;2022-11-20T09:37:48;6.80;99.90
2993;DHT22;1506;48.932;9.478;2022-11-20T09:40:23;6.80;99.90
2993;DHT22;1506;48.932;9.478;2022-11-20T09:43:03;6.80;99.90
2993;DHT22;1506;48.932;9.478;2022-11-20T09:51:59;6.90;99.90
2993;DHT22;1506;48.932;9.478;2022-11-20T09:54:29;7.00;99.90
2993;DHT22;1506;48.932;9.478;2022-11-20T09:57:11;7.00;99.90
2993;DHT22;1506;48.932;9.478;2022-11-20T09:59:44;7.00;99.90
2993;DHT22;1506;48.932;9.478;2022-11-20T10:05:00;7.00;99.90
2993;DHT22;1506;48.932;9.478;2022-11-20T10:07:41;7.00;99.90
2993;DHT22;1506;48.932;9.478;2022-11-20T10:10:16;7.10;99.90
2993;DHT22;1506;48.932;9.478;2022-11-20T10:16:03;7.00;99.90
2993;DHT22;1506;48.932;9.478;2022-11-20T10:22:09;7.00;99.90
2993;DHT22;1506;48.932;9.478;2022-11-20T10:31:04;7.00;99.90
2993;DHT22;1506;48.932;9.478;2022-11-20T10:33:39;7.00;99.90
2993;DHT22;1506;48.932;9.478;2022-11-20T10:36:32;7.00;99.90
2993;DHT22;1506;48.932;9.478;2022-11-20T10:39:32;7.00;99.90
2993;DHT22;1506;48.932;9.478;2022-11-20T10:42:02;7.00;99.90
2993;DHT22;1506;48.932;9.478;2022-11-20T10:44:29;7.00;99.90
2993;DHT22;1506;48.932;9.478;2022-11-20T10:47:20;7.00;99.90
2993;DHT22;1506;48.932;9.478;2022-11-20T10:49:51;7.00;99.90
2993;DHT22;1506;48.932;9.478;2022-11-20T10:52:26;6.90;99.90
2993;DHT22;1506;48.932;9.478;2022-11-20T11:00:42;7.00;99.90
2993;DHT22;1506;48.932;9.478;2022-11-20T11:03:28;7.00;99.90
2993;DHT22;1506;48.932;9.478;2022-11-20T11:08:34;7.10;99.90
2993;DHT22;1506;48.932;9.478;2022-11-20T11:11:26;7.00;99.90
2993;DHT22;1506;48.932;9.478;2022-11-20T11:14:14;7.10;99.90
2993;DHT22;1506;48.932;9.478;2022-11-20T11:16:53;7.00;99.90
2993;DHT22;1506;48.932;9.478;2022-11-20T11:19:22;7.00;99.90
2993;DHT22;1506;48.932;9.478;2022-11-20T11:21:56;7.10;99.90
2993;DHT22;1506;48.932;9.478;2022-11-20T11:24:29;7.00;99.90
2993;DHT22;1506;48.932;9.478;2022-11-20T11:27:14;7.10;99.90
2993;DHT22;1506;48.932;9.478;2022-11-20T11:29:45;7.10;99.90
2993;DHT22;1506;48.932;9.478;2022-11-20T11:32:15;7.10;99.90
2993;DHT22;1506;48.932;9.478;2022-11-20T11:34:45;7.20;99.90
2993;DHT22;1506;48.932;9.478;2022-11-20T11:37:18;7.20;99.90
2993;DHT22;1506;48.932;9.478;2022-11-20T11:39:48;7.20;99.90
2993;DHT22;1506;48.932;9.478;2022-11-20T11:42:39;7.20;99.90
2993;DHT22;1506;48.932;9.478;2022-11-20T11:45:14;7.20;99.90
2993;DHT22;1506;48.932;9.478;2022-11-20T11:47:45;7.20;99.90
2993;DHT22;1506;48.932;9.478;2022-11-20T11:50:23;7.20;99.90
2993;DHT22;1506;48.932;9.478;2022-11-20T11:58:45;7.40;99.90
2993;DHT22;1506;48.932;9.478;2022-11-20T12:04:23;7.70;99.90
2993;DHT22;1506;48.932;9.478;2022-11-20T12:06:58;7.90;99.90
2993;DHT22;1506;48.932;9.478;2022-11-20T12:09:52;8.00;99.90
2993;DHT22;1506;48.932;9.478;2022-11-20T12:12:27;8.20;99.90
2993;DHT22;1506;48.932;9.478;2022-11-20T12:14:58;8.20;99.90
2993;DHT22;1506;48.932;9.478;2022-11-20T12:17:25;8.10;99.90
2993;DHT22;1506;48.932;9.478;2022-11-20T12:19:52;8.10;99.90
2993;DHT22;1506;48.932;9.478;2022-11-20T12:25:35;8.00;99.90
2993;DHT22;1506;48.932;9.478;2022-11-20T12:31:11;8.00;99.90
2993;DHT22;1506;48.932;9.478;2022-11-20T12:34:20;8.10;99.90
2993;DHT22;1506;48.932;9.478;2022-11-20T12:39:35;8.00;70.30
2993;DHT22;1506;48.932;9.478;2022-11-20T12:48:38;8.40;43.40
2993;DHT22;1506;48.932;9.478;2022-11-20T12:57:25;9.10;1.00
2993;DHT22;1506;48.932;9.478;2022-11-20T13:00:10;9.10;1.00
2993;DHT22;1506;48.932;9.478;2022-11-20T13:08:29;9.20;1.00
2993;DHT22;1506;48.932;9.478;2022-11-20T13:16:59;10.20;1.00
2993;DHT22;1506;48.932;9.478;2022-11-20T13:19:32;10.10;99.90
2993;DHT22;1506;48.932;9.478;2022-11-20T13:22:00;9.90;72.10
2993;DHT22;1506;48.932;9.478;2022-11-20T13:24:29;9.60;99.90
2993;DHT22;1506;48.932;9.478;2022-11-20T13:29:43;9.00;1.00
2993;DHT22;1506;48.932;9.478;2022-11-20T13:34:54;8.70;99.90
2993;DHT22;1506;48.932;9.478;2022-11-20T13:40:22;8.60;99.90
2993;DHT22;1506;48.932;9.478;2022-11-20T13:45:42;9.10;99.90
2993;DHT22;1506;48.932;9.478;2022-11-20T13:48:26;9.50;99.90
2993;DHT22;1506;48.932;9.478;2022-11-20T13:54:14;10.20;1.00
2993;DHT22;1506;48.932;9.478;2022-11-20T14:02:26;9.40;99.90
2993;DHT22;1506;48.932;9.478;2022-11-20T14:04:57;9.20;1.00
2993;DHT22;1506;48.932;9.478;2022-11-20T14:07:32;9.30;99.90
2993;DHT22;1506;48.932;9.478;2022-11-20T14:10:03;9.30;1.00
2993;DHT22;1506;48.932;9.478;2022-11-20T14:12:32;9.20;59.00
2993;DHT22;1506;48.932;9.478;2022-11-20T14:15:00;9.10;1.00
2993;DHT22;1506;48.932;9.478;2022-11-20T14:17:33;9.00;1.00
2993;DHT22;1506;48.932;9.478;2022-11-20T14:20:07;8.80;94.80
2993;DHT22;1506;48.932;9.478;2022-11-20T14:22:39;8.70;99.90
2993;DHT22;1506;48.932;9.478;2022-11-20T14:27:43;8.70;1.00
2993;DHT22;1506;48.932;9.478;2022-11-20T14:30:14;8.60;99.90
2993;DHT22;1506;48.932;9.478;2022-11-20T14:32:44;8.60;1.00
2993;DHT22;1506;48.932;9.478;2022-11-20T14:35:25;8.50;1.00
2993;DHT22;1506;48.932;9.478;2022-11-20T14:37:55;8.40;92.10
2993;DHT22;1506;48.932;9.478;2022-11-20T14:40:32;8.30;1.00
2993;DHT22;1506;48.932;9.478;2022-11-20T14:45:56;8.20;1.00
2993;DHT22;1506;48.932;9.478;2022-11-20T14:48:41;8.10;99.90
2993;DHT22;1506;48.932;9.478;2022-11-20T14:51:22;8.10;99.90
2993;DHT22;1506;48.932;9.478;2022-11-20T14:54:15;8.00;99.90
2993;DHT22;1506;48.932;9.478;2022-11-20T14:57:01;7.90;1.00
2993;DHT22;1506;48.932;9.478;2022-11-20T14:59:32;7.90;1.00
2993;DHT22;1506;48.932;9.478;2022-11-20T15:02:10;7.90;1.00
2993;DHT22;1506;48.932;9.478;2022-11-20T15:04:57;7.80;1.00
2993;DHT22;1506;48.932;9.478;2022-11-20T15:07:28;7.70;1.00
2993;DHT22;1506;48.932;9.478;2022-11-20T15:13:01;7.60;1.00
2993;DHT22;1506;48.932;9.478;2022-11-20T15:15:46;7.40;99.90
2993;DHT22;1506;48.932;9.478;2022-11-20T15:18:22;7.40;99.90
2993;DHT22;1506;48.932;9.478;2022-11-20T15:20:51;7.40;1.00
2993;DHT22;1506;48.932;9.478;2022-11-20T15:23:19;7.30;1.00
2993;DHT22;1506;48.932;9.478;2022-11-20T15:25:47;7.20;99.90
2993;DHT22;1506;48.932;9.478;2022-11-20T15:28:23;7.10;61.60
2993;DHT22;1506;48.932;9.478;2022-11-20T15:30:51;7.10;1.00
2993;DHT22;1506;48.932;9.478;2022-11-20T15:33:18;7.00;1.00
2993;DHT22;1506;48.932;9.478;2022-11-20T15:35:45;6.90;1.00
2993;DHT22;1506;48.932;9.478;2022-11-20T15:38:12;6.90;1.00
2993;DHT22;1506;48.932;9.478;2022-11-20T15:40:40;6.80;1.00
2993;DHT22;1506;48.932;9.478;2022-11-20T15:43:06;6.80;99.90
2993;DHT22;1506;48.932;9.478;2022-11-20T15:48:12;6.70;1.00
2993;DHT22;1506;48.932;9.478;2022-11-20T15:53:17;6.60;1.00
2993;DHT22;1506;48.932;9.478;2022-11-20T15:55:45;6.50;1.00
2993;DHT22;1506;48.932;9.478;2022-11-20T15:58:12;6.50;1.00
2993;DHT22;1506;48.932;9.478;2022-11-20T16:00:39;6.40;1.00
2993;DHT22;1506;48.932;9.478;2022-11-20T16:03:10;6.50;1.00
2993;DHT22;1506;48.932;9.478;2022-11-20T16:05:38;6.40;1.00
2993;DHT22;1506;48.932;9.478;2022-11-20T16:08:05;6.30;1.00
2993;DHT22;1506;48.932;9.478;2022-11-20T16:10:38;6.30;1.00
2993;DHT22;1506;48.932;9.478;2022-11-20T16:13:15;6.30;1.00
2993;DHT22;1506;48.932;9.478;2022-11-20T16:16:08;6.30;1.00
2993;DHT22;1506;48.932;9.478;2022-11-20T16:18:40;6.30;1.00
2993;DHT22;1506;48.932;9.478;2022-11-20T16:21:11;6.20;1.00
2993;DHT22;1506;48.932;9.478;2022-11-20T16:23:40;6.20;1.00
2993;DHT22;1506;48.932;9.478;2022-11-20T16:26:10;6.20;1.00
2993;DHT22;1506;48.932;9.478;2022-11-20T16:28:38;6.20;1.00
2993;DHT22;1506;48.932;9.478;2022-11-20T16:31:16;6.20;1.00
2993;DHT22;1506;48.932;9.478;2022-11-20T16:33:56;6.20;1.00
2993;DHT22;1506;48.932;9.478;2022-11-20T16:36:25;6.10;1.00
2993;DHT22;1506;48.932;9.478;2022-11-20T16:38:58;6.20;1.00
2993;DHT22;1506;48.932;9.478;2022-11-20T16:41:29;6.10;1.00
2993;DHT22;1506;48.932;9.478;2022-11-20T16:43:59;6.10;1.00
2993;DHT22;1506;48.932;9.478;2022-11-20T16:46:30;6.10;1.00
2993;DHT22;1506;48.932;9.478;2022-11-20T16:49:06;6.10;1.00
2993;DHT22;1506;48.932;9.478;2022-11-20T16:51:38;6.10;1.00
2993;DHT22;1506;48.932;9.478;2022-11-20T16:54:07;6.10;1.00
2993;DHT22;1506;48.932;9.478;2022-11-20T16:56:35;6.10;1.00
2993;DHT22;1506;48.932;9.478;2022-11-20T16:59:03;6.20;1.00
2993;DHT22;1506;48.932;9.478;2022-11-20T17:01:30;6.20;1.00
2993;DHT22;1506;48.932;9.478;2022-11-20T17:04:03;6.20;1.00
2993;DHT22;1506;48.932;9.478;2022-11-20T17:06:33;6.20;1.00
2993;DHT22;1506;48.932;9.478;2022-11-20T17:09:06;6.30;1.00
2993;DHT22;1506;48.932;9.478;2022-11-20T17:11:36;6.30;1.00
2993;DHT22;1506;48.932;9.478;2022-11-20T17:14:04;6.40;1.00
2993;DHT22;1506;48.932;9.478;2022-11-20T17:16:35;6.40;1.00
2993;DHT22;1506;48.932;9.478;2022-11-20T17:19:03;6.40;1.00
2993;DHT22;1506;48.932;9.478;2022-11-20T17:21:32;6.40;1.00
2993;DHT22;1506;48.932;9.478;2022-11-20T17:24:03;6.50;1.00
2993;DHT22;1506;48.932;9.478;2022-11-20T17:26:34;6.50;1.00
2993;DHT22;1506;48.932;9.478;2022-11-20T17:29:03;6.60;1.00
2993;DHT22;1506;48.932;9.478;2022-11-20T17:31:39;6.60;1.00
2993;DHT22;1506;48.932;9.478;2022-11-20T17:34:07;6.60;1.00
2993;DHT22;1506;48.932;9.478;2022-11-20T17:36:37;6.60;1.00
2993;DHT22;1506;48.932;9.478;2022-11-20T17:39:13;6.70;1.00
2993;DHT22;1506;48.932;9.478;2022-11-20T17:41:40;6.70;1.00
2993;DHT22;1506;48.932;9.478;2022-11-20T17:44:09;6.70;1.00
2993;DHT22;1506;48.932;9.478;2022-11-20T17:46:37;6.80;1.00
2993;DHT22;1506;48.932;9.478;2022-11-20T17:49:04;6.80;1.00
2993;DHT22;1506;48.932;9.478;2022-11-20T17:51:33;6.80;1.00
2993;DHT22;1506;48.932;9.478;2022-11-20T17:54:04;6.80;1.00
2993;DHT22;1506;48.932;9.478;2022-11-20T17:56:35;6.90;1.00
2993;DHT22;1506;48.932;9.478;2022-11-20T17:59:21;6.90;1.00
2993;DHT22;1506;48.932;9.478;2022-11-20T18:01:48;6.90;1.00
2993;DHT22;1506;48.932;9.478;2022-11-20T18:04:16;6.90;1.00
2993;DHT22;1506;48.932;9.478;2022-11-20T18:06:43;6.90;1.00
2993;DHT22;1506;48.932;9.478;2022-11-20T18:09:11;6.90;1.00
2993;DHT22;1506;48.932;9.478;2022-11-20T18:11:40;6.80;99.90
2993;DHT22;1506;48.932;9.478;2022-11-20T18:14:12;6.90;1.00
2993;DHT22;1506;48.932;9.478;2022-11-20T18:17:04;6.90;99.90
2993;DHT22;1506;48.932;9.478;2022-11-20T18:19:35;6.90;99.90
2993;DHT22;1506;48.932;9.478;2022-11-20T18:22:18;6.90;99.90
2993;DHT22;1506;48.932;9.478;2022-11-20T18:24:45;6.90;99.90
2993;DHT22;1506;48.932;9.478;2022-11-20T18:27:15;6.90;99.90
2993;DHT22;1506;48.932;9.478;2022-11-20T18:29:46;6.90;1.00
2993;DHT22;1506;48.932;9.478;2022-11-20T18:32:19;6.90;99.90
2993;DHT22;1506;48.932;9.478;2022-11-20T18:34:47;6.90;1.00
2993;DHT22;1506;48.932;9.478;2022-11-20T18:37:15;6.90;99.90
2993;DHT22;1506;48.932;9.478;2022-11-20T18:39:42;6.90;99.90
2993;DHT22;1506;48.932;9.478;2022-11-20T18:42:14;6.90;99.90
2993;DHT22;1506;48.932;9.478;2022-11-20T18:45:00;6.90;1.00
2993;DHT22;1506;48.932;9.478;2022-11-20T18:47:31;6.70;1.00
2993;DHT22;1506;48.932;9.478;2022-11-20T18:50:03;6.70;1.00